Time;durP1;ratioP1;P1;durP2;ratioP2;P2;SDS_P1;SDS_P2;PMS_P1;PMS_P2;Temp;Humidity;BMP_temperature;BMP_pressure;BME280_temperature;BME280_humidity;BME280_pressure;Samples;Min_cycle;Max_cycle;Signal;HPM_P1;HPM_P2
2023/01/30 00:01:33;;;;;;;26.23;23.50;;;4.10;99.90;;;;;;4809844;29;20034;-72
2023/01/30 00:03:59;;;;;;;29.40;23.65;;;4.20;99.90;;;;;;4818743;29;20039;-72
2023/01/30 00:06:25;;;;;;;26.15;23.35;;;4.20;99.90;;;;;;4822801;29;20066;-72
2023/01/30 00:08:51;;;;;;;29.55;23.90;;;4.20;99.90;;;;;;4835859;29;20046;-72
2023/01/30 00:11:19;;;;;;;33.85;23.73;;;4.20;99.90;;;;;;4836941;29;20038;-72
2023/01/30 00:13:47;;;;;;;59.85;25.75;;;4.20;99.90;;;;;;4836843;29;20067;-72
2023/01/30 00:16:13;;;;;;;26.27;21.70;;;4.30;99.90;;;;;;4836566;29;20046;-72
2023/01/30 00:18:41;;;;;;;26.40;23.83;;;4.30;99.90;;;;;;4835571;29;20035;-72
2023/01/30 00:21:09;;;;;;;26.55;23.67;;;4.30;99.90;;;;;;4836859;29;20075;-72
2023/01/30 00:23:36;;;;;;;27.35;24.42;;;4.30;99.90;;;;;;4835722;29;20038;-72
2023/01/30 00:26:03;;;;;;;31.55;24.05;;;4.30;99.90;;;;;;4836768;29;20031;-72
2023/01/30 00:28:28;;;;;;;30.65;25.08;;;4.30;99.90;;;;;;4836726;29;20046;-72
2023/01/30 00:30:56;;;;;;;24.20;21.60;;;4.30;99.90;;;;;;4835650;29;20065;-72
2023/01/30 00:33:24;;;;;;;30.65;23.90;;;4.30;99.90;;;;;;4836540;29;20102;-72
2023/01/30 00:35:52;;;;;;;26.55;23.25;;;4.40;99.90;;;;;;4838219;29;20030;-72
2023/01/30 00:38:19;;;;;;;31.67;24.77;;;4.40;99.90;;;;;;4854826;29;20030;-72
2023/01/30 00:40:46;;;;;;;27.45;23.77;;;4.40;99.90;;;;;;4853618;29;20062;-72
2023/01/30 00:48:52;;;;;;;36.70;27.63;;;4.50;99.90;;;;;;4816991;29;20062;-72
2023/01/30 00:51:18;;;;;;;22.45;20.25;;;4.50;99.90;;;;;;4816978;29;20043;-72
2023/01/30 00:53:44;;;;;;;29.17;23.30;;;4.50;99.90;;;;;;4801792;29;20045;-72
2023/01/30 00:56:10;;;;;;;36.47;23.25;;;4.50;99.90;;;;;;4818102;29;20039;-72
2023/01/30 00:58:35;;;;;;;30.92;23.80;;;4.60;99.90;;;;;;4820847;29;20104;-72
2023/01/30 01:01:02;;;;;;;28.42;24.27;;;4.60;99.90;;;;;;4835258;29;20031;-72
2023/01/30 01:03:28;;;;;;;28.13;22.08;;;4.60;99.90;;;;;;4835148;29;20069;-73
2023/01/30 01:05:53;;;;;;;34.13;24.30;;;4.60;99.90;;;;;;4836239;29;20538;-72
2023/01/30 01:08:21;;;;;;;27.75;21.13;;;4.60;99.90;;;;;;4835183;29;20035;-72
2023/01/30 01:10:47;;;;;;;27.25;23.52;;;4.60;99.90;;;;;;4834905;29;20048;-72
2023/01/30 01:13:13;;;;;;;28.35;23.90;;;4.60;99.90;;;;;;4835937;29;20039;-72
2023/01/30 01:15:40;;;;;;;27.67;24.60;;;4.70;99.90;;;;;;4836382;29;20034;-72
2023/01/30 01:18:06;;;;;;;23.65;19.80;;;4.70;99.90;;;;;;4834929;29;20039;-72
2023/01/30 01:20:32;;;;;;;28.55;22.65;;;4.70;99.90;;;;;;4834818;29;20034;-72
2023/01/30 01:22:58;;;;;;;25.92;19.33;;;4.70;99.90;;;;;;4835081;29;20030;-72
2023/01/30 01:25:25;;;;;;;24.88;22.17;;;4.80;99.90;;;;;;4836107;29;20099;-72
2023/01/30 01:27:51;;;;;;;22.38;20.13;;;4.80;99.90;;;;;;4819439;29;20049;-72
2023/01/30 01:30:17;;;;;;;25.17;20.95;;;4.80;99.90;;;;;;4831638;29;20065;-72
2023/01/30 01:32:43;;;;;;;23.08;20.52;;;4.80;99.90;;;;;;4816454;29;20042;-72
2023/01/30 01:35:10;;;;;;;28.58;22.38;;;4.80;99.90;;;;;;4816743;29;20047;-72
2023/01/30 01:37:36;;;;;;;26.55;21.60;;;4.90;99.90;;;;;;4839892;29;20090;-72
2023/01/30 01:42:49;;;;;;;27.80;19.45;;;4.90;99.90;;;;;;4857553;29;20034;-72
2023/01/30 01:45:23;;;;;;;28.85;23.27;;;4.90;99.90;;;;;;4832673;29;20479;-72
2023/01/30 01:47:57;;;;;;;28.60;21.60;;;4.90;99.90;;;;;;4838021;29;20042;-72
2023/01/30 01:50:36;;;;;;;26.25;23.45;;;4.90;99.90;;;;;;4837844;29;20050;-72
2023/01/30 01:53:02;;;;;;;30.05;22.55;;;4.90;99.90;;;;;;4837638;29;20038;-72
2023/01/30 01:55:29;;;;;;;30.08;19.92;;;5.00;99.90;;;;;;4839012;29;20034;-72
2023/01/30 01:58:04;;;;;;;23.83;20.33;;;4.90;99.90;;;;;;4837825;29;20037;-72
2023/01/30 02:00:30;;;;;;;25.42;21.75;;;5.00;99.90;;;;;;4826948;29;20094;-72
2023/01/30 02:03:13;;;;;;;25.52;21.17;;;5.00;99.90;;;;;;4819500;29;20624;-72
2023/01/30 02:05:43;;;;;;;26.92;20.83;;;5.00;99.90;;;;;;4819582;29;20039;-72
2023/01/30 02:08:15;;;;;;;26.83;20.98;;;5.00;99.90;;;;;;4819525;29;20049;-72
2023/01/30 02:11:09;;;;;;;29.30;22.10;;;5.00;99.90;;;;;;4819681;29;20038;-72
2023/01/30 02:13:36;;;;;;;21.88;19.33;;;5.00;99.90;;;;;;4823247;29;20026;-72
2023/01/30 02:16:04;;;;;;;25.58;18.98;;;5.10;99.90;;;;;;4820758;29;20118;-72
2023/01/30 02:18:31;;;;;;;23.30;20.88;;;5.10;99.90;;;;;;4825102;29;20050;-72
2023/01/30 02:21:25;;;;;;;30.70;21.30;;;5.10;99.90;;;;;;4838893;29;20034;-72
2023/01/30 02:24:17;;;;;;;25.58;21.58;;;5.10;99.90;;;;;;4822266;29;20569;-72
2023/01/30 02:27:04;;;;;;;30.48;21.75;;;5.10;99.90;;;;;;4822249;29;20045;-72
2023/01/30 02:29:43;;;;;;;28.27;21.35;;;5.00;99.90;;;;;;4836698;29;20455;-72
2023/01/30 02:33:00;;;;;;;29.38;19.38;;;5.10;99.90;;;;;;4835584;29;20137;-72
2023/01/30 02:35:38;;;;;;;18.90;16.17;;;5.30;99.90;;;;;;4839374;29;20038;-73
2023/01/30 02:38:15;;;;;;;21.52;16.80;;;5.30;99.90;;;;;;4853942;29;20040;-73
2023/01/30 02:41:16;;;;;;;26.65;17.65;;;5.30;99.90;;;;;;4861392;29;20441;-72
2023/01/30 02:43:56;;;;;;;20.10;17.98;;;5.40;99.90;;;;;;4855335;29;20042;-72
2023/01/30 02:46:35;;;;;;;18.27;16.33;;;5.40;99.90;;;;;;4837793;29;20488;-73
2023/01/30 02:49:13;;;;;;;17.67;15.90;;;5.40;99.90;;;;;;4818830;29;20043;-72
2023/01/30 02:51:41;;;;;;;20.83;15.23;;;5.50;99.90;;;;;;4818594;29;20046;-72
2023/01/30 02:54:10;;;;;;;26.38;17.75;;;5.60;99.90;;;;;;4818146;29;20035;-72
2023/01/30 02:56:49;;;;;;;18.73;16.85;;;5.60;99.90;;;;;;4818700;29;20042;-72
2023/01/30 02:59:20;;;;;;;35.60;14.65;;;5.60;99.90;;;;;;4818710;29;20457;-72
2023/01/30 03:02:10;;;;;;;15.77;14.10;;;5.70;99.90;;;;;;4832028;29;20033;-72
2023/01/30 03:05:01;;;;;;;20.08;18.02;;;5.70;99.90;;;;;;4821704;29;20038;-72
2023/01/30 03:07:43;;;;;;;16.92;14.88;;;5.70;99.90;;;;;;4836836;29;20036;-72
2023/01/30 03:10:31;;;;;;;18.55;14.65;;;5.80;99.90;;;;;;4836713;29;20107;-73
2023/01/30 03:13:21;;;;;;;23.50;16.13;;;5.80;99.90;;;;;;4822254;29;20034;-73
2023/01/30 03:15:52;;;;;;;19.52;15.05;;;5.80;99.90;;;;;;4828518;29;20035;-72
2023/01/30 03:18:19;;;;;;;17.90;14.65;;;5.90;99.90;;;;;;4818390;29;20039;-72
2023/01/30 03:20:45;;;;;;;18.80;14.68;;;5.90;99.90;;;;;;4818228;29;20031;-70
2023/01/30 03:23:13;;;;;;;31.85;15.02;;;5.90;99.90;;;;;;4819495;29;20046;-72
2023/01/30 03:25:42;;;;;;;17.02;13.63;;;5.90;99.90;;;;;;4818143;29;20031;-72
2023/01/30 03:28:09;;;;;;;15.40;12.65;;;5.90;99.90;;;;;;4818148;29;20042;-72
2023/01/30 03:30:35;;;;;;;18.20;14.70;;;5.90;99.90;;;;;;4817795;29;20047;-73
2023/01/30 03:33:09;;;;;;;16.05;14.35;;;5.90;99.90;;;;;;4818159;29;20035;-73
2023/01/30 03:35:36;;;;;;;14.85;13.40;;;5.90;99.90;;;;;;4817861;29;20039;-72
2023/01/30 03:38:03;;;;;;;20.42;13.82;;;5.90;99.90;;;;;;4842778;29;20030;-73
2023/01/30 03:40:29;;;;;;;16.23;14.55;;;6.00;99.90;;;;;;4839320;29;20038;-73
2023/01/30 03:42:56;;;;;;;16.60;13.75;;;6.00;99.90;;;;;;4854323;29;20090;-72
2023/01/30 03:45:22;;;;;;;19.88;14.75;;;6.00;99.90;;;;;;4836500;29;20431;-72
2023/01/30 03:47:48;;;;;;;15.43;13.10;;;6.00;99.90;;;;;;4817937;29;20088;-72
2023/01/30 03:50:16;;;;;;;15.38;13.85;;;6.00;99.90;;;;;;4802866;29;20073;-72
2023/01/30 03:52:43;;;;;;;23.02;15.07;;;6.00;99.90;;;;;;4818643;29;20034;-72
2023/01/30 03:55:13;;;;;;;23.17;16.10;;;6.00;99.90;;;;;;4817820;29;20126;-73
2023/01/30 03:57:39;;;;;;;14.07;12.77;;;6.00;99.90;;;;;;4817591;29;20063;-72
2023/01/30 04:00:06;;;;;;;18.20;16.30;;;6.00;99.90;;;;;;4817652;29;20038;-72
2023/01/30 04:02:42;;;;;;;19.02;15.57;;;6.00;99.90;;;;;;4818820;29;20046;-72
2023/01/30 04:05:10;;;;;;;23.30;12.80;;;6.00;99.90;;;;;;4816634;29;20093;-72
2023/01/30 04:07:38;;;;;;;19.20;15.18;;;6.00;99.90;;;;;;4817441;29;20039;-73
2023/01/30 04:10:05;;;;;;;15.55;13.48;;;5.90;99.90;;;;;;4817501;29;20096;-73
2023/01/30 04:12:31;;;;;;;19.35;14.32;;;6.00;99.90;;;;;;4817368;29;20059;-72
2023/01/30 04:14:58;;;;;;;16.95;14.02;;;5.90;99.90;;;;;;4817281;29;20030;-73
2023/01/30 04:17:44;;;;;;;25.55;15.15;;;5.90;99.90;;;;;;4817242;29;20038;-73
2023/01/30 04:20:28;;;;;;;20.48;17.08;;;5.90;99.90;;;;;;4818638;29;20049;-73
2023/01/30 04:22:56;;;;;;;16.63;14.55;;;5.90;99.90;;;;;;4817241;29;20062;-72
2023/01/30 04:25:23;;;;;;;24.13;15.65;;;5.90;99.90;;;;;;4817331;29;20030;-73
2023/01/30 04:27:49;;;;;;;20.25;14.52;;;5.90;99.90;;;;;;4817169;29;20035;-73
2023/01/30 04:30:21;;;;;;;15.10;13.52;;;5.90;99.90;;;;;;4816855;29;20055;-70
2023/01/30 04:32:49;;;;;;;23.77;15.00;;;5.90;99.90;;;;;;4802632;29;20027;-72
2023/01/30 04:35:15;;;;;;;17.08;15.20;;;5.90;99.90;;;;;;4816950;29;20505;-72
2023/01/30 04:37:41;;;;;;;13.35;12.07;;;5.90;99.90;;;;;;4835421;29;20037;-71
2023/01/30 04:40:09;;;;;;;16.95;13.50;;;5.90;99.90;;;;;;4853639;29;20040;-73
2023/01/30 04:42:36;;;;;;;18.67;13.15;;;5.90;99.90;;;;;;4853456;29;20067;-72
2023/01/30 04:45:24;;;;;;;16.65;13.85;;;6.00;99.90;;;;;;4821184;29;20376;-72
2023/01/30 04:47:51;;;;;;;16.17;13.02;;;5.90;99.90;;;;;;4816987;29;20046;-73
2023/01/30 04:50:17;;;;;;;14.50;13.18;;;6.00;99.90;;;;;;4816975;29;20031;-73
2023/01/30 04:52:43;;;;;;;14.48;12.50;;;6.00;99.90;;;;;;4818160;29;20035;-73
2023/01/30 04:55:10;;;;;;;18.02;13.80;;;6.00;99.90;;;;;;4816940;29;20061;-73
2023/01/30 04:57:36;;;;;;;16.73;11.10;;;6.00;99.90;;;;;;4818249;29;20031;-70
2023/01/30 05:00:02;;;;;;;12.88;11.68;;;6.00;99.90;;;;;;4816830;29;20038;-72
2023/01/30 05:02:30;;;;;;;12.23;10.95;;;6.10;99.90;;;;;;4816830;29;20043;-72
2023/01/30 05:04:56;;;;;;;13.23;12.02;;;6.10;99.90;;;;;;4818169;29;20034;-72
2023/01/30 05:07:22;;;;;;;13.88;11.38;;;6.10;99.90;;;;;;4816870;29;20102;-72
2023/01/30 05:09:48;;;;;;;21.38;14.07;;;6.10;99.90;;;;;;4818167;29;20062;-72
2023/01/30 05:12:14;;;;;;;19.10;12.68;;;6.10;99.90;;;;;;4816504;29;20098;-71
2023/01/30 05:14:40;;;;;;;18.33;14.50;;;6.10;99.90;;;;;;4816754;29;20038;-72
2023/01/30 05:17:06;;;;;;;12.98;11.68;;;6.20;99.90;;;;;;4824382;29;20043;-72
2023/01/30 05:19:31;;;;;;;14.48;12.80;;;6.20;99.90;;;;;;4821659;29;20027;-72
2023/01/30 05:21:57;;;;;;;17.65;14.25;;;6.20;99.90;;;;;;4821505;29;20071;-72
2023/01/30 05:24:23;;;;;;;17.90;13.60;;;6.20;99.90;;;;;;4821394;29;20035;-72
2023/01/30 05:26:49;;;;;;;16.63;14.25;;;6.20;99.90;;;;;;4821679;29;20039;-72
2023/01/30 05:29:15;;;;;;;15.55;13.85;;;6.20;99.90;;;;;;4820088;29;20055;-72
2023/01/30 05:31:41;;;;;;;15.70;14.07;;;6.20;99.90;;;;;;4821216;29;20100;-72
2023/01/30 05:34:11;;;;;;;19.20;15.48;;;6.30;99.90;;;;;;4821436;29;20098;-72
2023/01/30 05:36:36;;;;;;;21.77;16.08;;;6.30;99.90;;;;;;4821197;29;20043;-72
2023/01/30 05:39:03;;;;;;;17.15;13.73;;;6.30;99.90;;;;;;4844126;29;20110;-72
2023/01/30 05:41:30;;;;;;;29.30;17.77;;;6.30;99.90;;;;;;4816797;29;20026;-72
2023/01/30 05:43:56;;;;;;;22.30;15.90;;;6.30;99.90;;;;;;4827445;29;20041;-73
2023/01/30 05:46:23;;;;;;;17.88;15.52;;;6.30;99.90;;;;;;4835741;29;20030;-72
2023/01/30 05:48:48;;;;;;;16.20;14.40;;;6.30;99.90;;;;;;4826199;29;20026;-73
2023/01/30 05:51:22;;;;;;;17.00;13.85;;;6.30;99.90;;;;;;4837445;29;20042;-73
2023/01/30 05:53:47;;;;;;;24.83;16.85;;;6.30;99.90;;;;;;4837346;29;20078;-73
2023/01/30 05:56:14;;;;;;;19.95;15.55;;;6.40;99.90;;;;;;4826269;29;20483;-71
2023/01/30 05:58:40;;;;;;;22.42;16.15;;;6.40;99.90;;;;;;4836456;29;20087;-72
2023/01/30 06:01:08;;;;;;;19.10;14.82;;;6.40;99.90;;;;;;4835057;29;20023;-72
2023/01/30 06:03:56;;;;;;;23.77;16.35;;;6.40;99.90;;;;;;4830825;29;20034;-73
2023/01/30 06:06:23;;;;;;;19.35;14.88;;;6.40;99.90;;;;;;4827102;29;20063;-73
2023/01/30 06:08:53;;;;;;;19.80;16.02;;;6.40;99.90;;;;;;4836831;29;20037;-73
2023/01/30 06:11:19;;;;;;;23.67;14.68;;;6.40;99.90;;;;;;4845286;29;20034;-73
2023/01/30 06:13:45;;;;;;;21.13;16.45;;;6.40;99.90;;;;;;4805452;29;20042;-73
2023/01/30 06:16:13;;;;;;;15.85;14.27;;;6.40;99.90;;;;;;4821568;29;20043;-73
2023/01/30 06:18:39;;;;;;;22.50;15.88;;;6.40;99.90;;;;;;4839475;29;20491;-73
2023/01/30 06:21:06;;;;;;;17.10;14.63;;;6.40;99.90;;;;;;4819469;29;20039;-73
2023/01/30 06:23:32;;;;;;;17.17;13.02;;;6.50;99.90;;;;;;4833356;29;20042;-73
2023/01/30 06:25:58;;;;;;;15.07;13.57;;;6.50;99.90;;;;;;4838393;29;20494;-73
2023/01/30 06:28:25;;;;;;;15.07;13.30;;;6.50;99.90;;;;;;4837719;29;20038;-72
2023/01/30 06:30:52;;;;;;;17.17;13.85;;;6.50;99.90;;;;;;4838202;29;20062;-73
2023/01/30 06:33:19;;;;;;;14.93;13.52;;;6.50;99.90;;;;;;4838220;29;20054;-73
2023/01/30 06:35:49;;;;;;;18.65;15.13;;;6.50;99.90;;;;;;4822621;29;20095;-73
2023/01/30 06:38:15;;;;;;;17.00;14.27;;;6.50;99.90;;;;;;4834499;29;20037;-73
2023/01/30 06:40:44;;;;;;;18.02;13.90;;;6.50;99.90;;;;;;4842820;29;20527;-72
2023/01/30 06:43:10;;;;;;;17.42;14.50;;;6.50;99.90;;;;;;4833410;29;20394;-72
2023/01/30 06:45:36;;;;;;;14.60;11.80;;;6.30;99.90;;;;;;4828322;29;20066;-72
2023/01/30 06:48:02;;;;;;;16.80;13.88;;;6.50;99.90;;;;;;4825524;29;20042;-73
2023/01/30 06:50:28;;;;;;;16.40;13.30;;;6.50;99.90;;;;;;4832208;29;20034;-72
2023/01/30 06:52:55;;;;;;;14.65;13.15;;;6.50;99.90;;;;;;4836744;29;20062;-72
2023/01/30 06:55:24;;;;;;;17.40;14.02;;;6.50;99.90;;;;;;4823526;29;20051;-73
2023/01/30 06:58:17;;;;;;;15.48;12.68;;;6.60;99.90;;;;;;4819120;29;20109;-73
2023/01/30 07:00:43;;;;;;;14.45;12.88;;;6.60;99.90;;;;;;4820532;29;20041;-73
2023/01/30 07:03:15;;;;;;;16.63;13.88;;;6.60;99.90;;;;;;4819670;29;20026;-72
2023/01/30 07:05:43;;;;;;;19.38;12.57;;;6.60;99.90;;;;;;4819788;29;20039;-72
2023/01/30 07:08:09;;;;;;;18.33;12.40;;;6.50;99.90;;;;;;4809813;29;20102;-73
2023/01/30 07:10:36;;;;;;;14.95;9.48;;;6.50;99.90;;;;;;4819156;29;20097;-73
2023/01/30 07:13:02;;;;;;;19.10;9.15;;;6.50;99.90;;;;;;4822565;29;20027;-73
2023/01/30 07:15:28;;;;;;;19.27;10.45;;;6.50;99.90;;;;;;4818873;29;20035;-74
2023/01/30 07:17:54;;;;;;;17.65;9.55;;;6.40;99.90;;;;;;4817627;29;20054;-73
2023/01/30 07:20:20;;;;;;;9.73;8.10;;;6.40;99.90;;;;;;4804770;29;20030;-74
2023/01/30 07:22:53;;;;;;;7.30;6.40;;;6.40;99.90;;;;;;4817220;29;20480;-74
2023/01/30 07:25:21;;;;;;;11.75;6.90;;;6.30;99.90;;;;;;4820770;29;20035;-75
2023/01/30 07:27:57;;;;;;;14.68;7.65;;;6.20;99.90;;;;;;4818116;29;20038;-74
2023/01/30 07:30:23;;;;;;;16.27;7.70;;;6.20;99.90;;;;;;4817191;29;20051;-74
2023/01/30 07:32:54;;;;;;;7.95;4.53;;;6.20;99.90;;;;;;4817318;29;20045;-74
2023/01/30 07:35:21;;;;;;;9.63;6.18;;;6.20;99.90;;;;;;4818714;29;20084;-74
2023/01/30 07:37:48;;;;;;;8.30;5.95;;;6.10;99.90;;;;;;4834523;29;20111;-74
2023/01/30 07:40:14;;;;;;;12.13;6.72;;;6.00;99.90;;;;;;4817173;29;20031;-74
2023/01/30 07:42:41;;;;;;;8.32;4.55;;;5.90;99.90;;;;;;4818823;29;20031;-74
2023/01/30 07:45:07;;;;;;;15.88;5.15;;;5.90;99.90;;;;;;4825861;29;20042;-74
2023/01/30 07:47:33;;;;;;;10.48;4.97;;;5.80;99.90;;;;;;4818592;29;20039;-74
2023/01/30 07:49:59;;;;;;;13.57;3.75;;;5.80;99.90;;;;;;4821349;29;20110;-74
2023/01/30 07:52:25;;;;;;;19.98;4.32;;;5.70;99.90;;;;;;4843738;29;20038;-72
2023/01/30 07:54:51;;;;;;;10.98;3.78;;;5.80;99.90;;;;;;4837006;29;20058;-74
2023/01/30 07:57:17;;;;;;;6.50;3.85;;;5.80;99.90;;;;;;4826838;29;20097;-74
2023/01/30 07:59:43;;;;;;;5.03;3.17;;;5.90;99.90;;;;;;4833801;29;20031;-74
2023/01/30 08:02:10;;;;;;;5.93;4.22;;;6.00;99.90;;;;;;4844928;29;20045;-74
2023/01/30 08:04:35;;;;;;;5.15;3.63;;;6.10;99.90;;;;;;4839409;29;20081;-74
2023/01/30 08:07:01;;;;;;;17.08;6.95;;;6.40;99.90;;;;;;4820221;29;20030;-75
2023/01/30 08:09:27;;;;;;;17.25;3.95;;;6.90;99.90;;;;;;4822515;29;20049;-74
2023/01/30 08:11:53;;;;;;;10.00;3.25;;;7.10;99.90;;;;;;4832225;29;20062;-74
2023/01/30 08:14:19;;;;;;;9.10;3.65;;;7.50;99.90;;;;;;4820487;29;20566;-74
2023/01/30 08:16:45;;;;;;;4.90;2.70;;;7.60;99.90;;;;;;4818262;29;20031;-75
2023/01/30 08:19:11;;;;;;;12.40;3.25;;;7.70;99.90;;;;;;4818254;29;20490;-74
2023/01/30 08:21:37;;;;;;;14.00;4.50;;;7.90;99.90;;;;;;4816637;29;20030;-74
2023/01/30 08:24:03;;;;;;;8.77;3.88;;;8.30;99.90;;;;;;4818104;29;20034;-74
2023/01/30 08:26:29;;;;;;;7.90;3.25;;;9.60;99.90;;;;;;4818207;29;20050;-74
2023/01/30 08:28:55;;;;;;;7.32;3.80;;;11.30;99.90;;;;;;4816772;29;20027;-73
2023/01/30 08:31:22;;;;;;;5.18;2.33;;;12.80;99.90;;;;;;4818144;29;20446;-73
2023/01/30 08:33:48;;;;;;;5.38;3.08;;;14.00;99.90;;;;;;4826365;29;20035;-72
2023/01/30 08:36:13;;;;;;;12.02;2.95;;;14.70;99.90;;;;;;4822694;29;20038;-72
2023/01/30 08:38:39;;;;;;;3.65;2.70;;;15.70;99.90;;;;;;4817934;29;20038;-73
2023/01/30 08:41:07;;;;;;;8.80;3.05;;;16.50;99.90;;;;;;4816791;29;20027;-73
2023/01/30 08:43:33;;;;;;;5.93;2.60;;;16.80;99.90;;;;;;4817939;29;20027;-72
2023/01/30 08:45:59;;;;;;;3.97;3.38;;;17.20;99.90;;;;;;4824437;29;20038;-72
2023/01/30 08:48:25;;;;;;;5.18;2.45;;;17.90;99.90;;;;;;4834981;29;20053;-71
2023/01/30 08:50:52;;;;;;;7.15;2.20;;;18.20;98.30;;;;;;4835587;29;20066;-71
2023/01/30 08:53:18;;;;;;;5.97;2.35;;;17.90;97.30;;;;;;4835594;29;20393;-71
2023/01/30 08:55:44;;;;;;;8.10;2.80;;;18.00;98.10;;;;;;4835359;29;20037;-71
2023/01/30 08:58:10;;;;;;;10.40;2.85;;;18.30;99.00;;;;;;4824538;29;20030;-71
2023/01/30 09:00:38;;;;;;;4.07;2.42;;;18.50;96.50;;;;;;4829729;29;20036;-71
2023/01/30 09:03:03;;;;;;;16.58;5.00;;;18.20;96.40;;;;;;4815963;29;20047;-71
2023/01/30 09:05:29;;;;;;;2.50;2.17;;;18.70;95.60;;;;;;4816618;29;20108;-71
2023/01/30 09:07:55;;;;;;;8.45;3.58;;;19.50;95.10;;;;;;4831136;29;20062;-71
2023/01/30 09:10:23;;;;;;;12.55;4.40;;;18.70;95.40;;;;;;4822640;29;20042;-71
2023/01/30 09:12:48;;;;;;;11.25;3.45;;;19.90;94.30;;;;;;4836003;29;20508;-71
2023/01/30 09:15:14;;;;;;;5.85;2.47;;;19.90;94.10;;;;;;4835063;29;20098;-71
2023/01/30 09:17:40;;;;;;;12.05;3.55;;;19.80;93.30;;;;;;4834938;29;20046;-71
2023/01/30 09:20:09;;;;;;;13.77;3.55;;;20.50;92.90;;;;;;4835782;29;20027;-71
2023/01/30 09:22:34;;;;;;;9.75;2.33;;;19.90;92.90;;;;;;4836060;29;20042;-71
2023/01/30 09:25:00;;;;;;;6.68;3.00;;;19.60;92.70;;;;;;4819287;29;20106;-71
2023/01/30 09:27:26;;;;;;;10.73;4.55;;;19.60;92.70;;;;;;4817618;29;20046;-71
2023/01/30 09:29:52;;;;;;;9.45;2.88;;;19.80;92.50;;;;;;4830118;29;20054;-71
2023/01/30 09:32:18;;;;;;;7.03;2.75;;;20.60;91.80;;;;;;4835888;29;20046;-71
2023/01/30 09:34:44;;;;;;;9.98;2.22;;;21.10;91.20;;;;;;4835165;29;20033;-71
2023/01/30 09:37:10;;;;;;;8.32;2.70;;;20.20;91.90;;;;;;4834498;29;20035;-72
2023/01/30 09:39:36;;;;;;;4.63;2.10;;;20.20;91.90;;;;;;4827614;29;20038;-72
2023/01/30 09:42:04;;;;;;;7.05;2.40;;;20.40;91.30;;;;;;4817623;29;20056;-72
2023/01/30 09:44:46;;;;;;;7.82;2.30;;;20.20;91.60;;;;;;4825087;29;20043;-72
2023/01/30 09:47:32;;;;;;;8.10;1.60;;;20.00;91.70;;;;;;4819700;29;20034;-72
2023/01/30 09:50:16;;;;;;;7.13;2.85;;;19.40;91.70;;;;;;4817509;29;20031;-71
2023/01/30 09:52:59;;;;;;;6.30;2.28;;;19.80;91.50;;;;;;4817675;29;20070;-72
2023/01/30 09:55:29;;;;;;;7.60;3.05;;;20.80;90.80;;;;;;4818267;29;20394;-72
2023/01/30 09:57:56;;;;;;;;;;;20.30;90.90;;;;;;4817791;29;20065;-72
2023/01/30 10:00:32;;;;;;;13.18;4.47;;;19.70;91.30;;;;;;4826253;29;19909;-72
2023/01/30 10:03:07;;;;;;;8.82;3.45;;;19.80;91.00;;;;;;4836787;29;20045;-72
2023/01/30 10:06:01;;;;;;;5.22;3.08;;;18.80;91.50;;;;;;4835745;29;20034;-72
2023/01/30 10:08:46;;;;;;;6.35;3.00;;;17.90;92.20;;;;;;4838678;29;20038;-72
2023/01/30 10:11:52;;;;;;;6.13;2.00;;;16.60;93.40;;;;;;4825470;29;20111;-72
2023/01/30 10:14:42;;;;;;;10.80;2.58;;;15.50;95.40;;;;;;4820198;29;20038;-72
2023/01/30 10:17:11;;;;;;;;;;;15.20;95.10;;;;;;4820907;29;20026;-72
2023/01/30 10:19:56;;;;;;;5.22;2.75;;;14.90;95.50;;;;;;4828291;29;19913;-71
2023/01/30 10:22:44;;;;;;;3.92;2.03;;;14.00;95.90;;;;;;4824930;29;20031;-72
2023/01/30 10:25:54;;;;;;;6.50;2.95;;;13.10;97.80;;;;;;4826818;29;20070;-72
2023/01/30 10:28:28;;;;;;;10.68;2.30;;;12.50;98.90;;;;;;4835874;29;20038;-72
2023/01/30 10:31:13;;;;;;;6.88;2.88;;;11.80;99.80;;;;;;4848237;29;20380;-71
2023/01/30 10:34:02;;;;;;;6.80;2.97;;;11.10;99.90;;;;;;4830150;29;20051;-72
2023/01/30 10:36:55;;;;;;;14.02;3.70;;;10.80;99.90;;;;;;4833831;29;20030;-72
2023/01/30 10:39:44;;;;;;;5.00;2.83;;;10.60;99.90;;;;;;4821259;29;20031;-72
2023/01/30 10:42:18;;;;;;;7.82;2.65;;;10.20;99.90;;;;;;4855359;29;20034;-72
2023/01/30 10:44:46;;;;;;;15.27;3.03;;;9.80;99.90;;;;;;4822761;29;20117;-72
2023/01/30 10:47:36;;;;;;;4.97;3.05;;;9.70;99.90;;;;;;4838076;29;20497;-72
2023/01/30 10:50:16;;;;;;;;;;;9.60;99.90;;;;;;4838573;29;20042;-71
2023/01/30 10:53:06;;;;;;;;;;;9.50;99.90;;;;;;4838149;29;20007;-71
2023/01/30 10:55:41;;;;;;;6.40;3.83;;;9.40;99.90;;;;;;4823145;29;19917;-71
2023/01/30 10:58:07;;;;;;;9.77;4.97;;;9.30;99.90;;;;;;4822228;29;20098;-71
2023/01/30 11:00:35;;;;;;;3.65;2.75;;;9.30;99.90;;;;;;4827851;29;20054;-72
2023/01/30 11:03:16;;;;;;;6.47;3.08;;;9.20;99.90;;;;;;4827044;29;20151;-71
2023/01/30 11:05:50;;;;;;;9.43;3.45;;;9.10;99.90;;;;;;4818132;29;20038;-72
2023/01/30 11:08:28;;;;;;;7.20;2.83;;;9.10;99.90;;;;;;4828246;29;20390;-71
2023/01/30 11:10:54;;;;;;;7.07;2.67;;;9.20;99.90;;;;;;4826650;29;20043;-72
2023/01/30 11:13:29;;;;;;;15.52;3.78;;;9.20;99.90;;;;;;4834879;29;20030;-71
2023/01/30 11:16:03;;;;;;;11.95;3.45;;;9.10;99.90;;;;;;4823564;29;20043;-71
2023/01/30 11:18:28;;;;;;;8.88;6.32;;;8.90;99.90;;;;;;4822715;29;20030;-71
2023/01/30 11:21:04;;;;;;;7.45;2.45;;;8.80;99.90;;;;;;4819994;29;20035;-71
2023/01/30 11:23:38;;;;;;;6.05;3.53;;;8.70;99.90;;;;;;4823387;29;20047;-71
2023/01/30 11:26:04;;;;;;;9.05;3.55;;;8.70;99.90;;;;;;4841753;29;20035;-71
2023/01/30 11:28:39;;;;;;;7.50;3.75;;;8.60;99.90;;;;;;4816744;29;20042;-72
2023/01/30 11:31:18;;;;;;;16.25;4.40;;;8.70;99.90;;;;;;4830987;29;20061;-72
2023/01/30 11:33:45;;;;;;;11.98;3.50;;;8.60;99.90;;;;;;4820155;29;20035;-72
2023/01/30 11:36:26;;;;;;;7.93;4.07;;;8.60;99.90;;;;;;4817715;29;20372;-72
2023/01/30 11:39:02;;;;;;;18.77;4.57;;;8.60;99.90;;;;;;4824145;29;20094;-72
2023/01/30 11:41:29;;;;;;;6.07;3.05;;;8.70;99.90;;;;;;4834545;29;20503;-72
2023/01/30 11:44:03;;;;;;;4.28;2.25;;;8.80;99.90;;;;;;4837073;29;20042;-72
2023/01/30 11:46:33;;;;;;;6.70;2.70;;;8.70;99.90;;;;;;4837305;29;20380;-72
2023/01/30 11:49:02;;;;;;;9.05;3.22;;;8.70;99.90;;;;;;4834441;29;20382;-72
2023/01/30 11:51:32;;;;;;;14.77;5.28;;;8.60;99.90;;;;;;4836906;29;20038;-72
2023/01/30 11:54:03;;;;;;;28.60;4.60;;;8.50;99.90;;;;;;4836954;29;20456;-72
2023/01/30 11:56:36;;;;;;;12.75;3.30;;;8.50;99.90;;;;;;4851243;29;20056;-72
2023/01/30 11:59:18;;;;;;;12.27;2.75;;;8.50;99.90;;;;;;4836710;29;20339;-72
2023/01/30 12:01:44;;;;;;;12.65;3.95;;;8.60;99.90;;;;;;4836767;29;20034;-72
2023/01/30 12:04:11;;;;;;;14.27;2.90;;;8.80;99.90;;;;;;4834243;29;20066;-73
2023/01/30 12:06:40;;;;;;;11.80;2.92;;;8.80;99.90;;;;;;4834880;29;20034;-72
2023/01/30 12:09:26;;;;;;;8.10;5.15;;;8.90;99.90;;;;;;4833563;29;20042;-72
2023/01/30 12:11:52;;;;;;;3.83;2.25;;;8.80;99.90;;;;;;4836476;29;20042;-72
2023/01/30 12:14:42;;;;;;;10.40;3.63;;;8.80;99.90;;;;;;4835109;29;20038;-72
2023/01/30 12:17:26;;;;;;;4.70;1.85;;;8.80;99.90;;;;;;4825532;29;20951;-72
2023/01/30 12:19:58;;;;;;;10.27;4.50;;;8.90;99.90;;;;;;4835999;29;20109;-72
2023/01/30 12:22:45;;;;;;;8.57;4.25;;;8.90;99.90;;;;;;4828478;29;20395;-72
2023/01/30 12:25:34;;;;;;;8.55;2.72;;;8.80;99.90;;;;;;4826155;29;20079;-72
2023/01/30 12:28:03;;;;;;;7.05;2.58;;;8.70;99.90;;;;;;4818433;29;20034;-72
2023/01/30 12:30:36;;;;;;;8.43;2.90;;;8.50;99.90;;;;;;4825165;29;20034;-72
2023/01/30 12:33:05;;;;;;;7.78;3.65;;;8.50;99.90;;;;;;4835680;29;20038;-72
2023/01/30 12:36:04;;;;;;;17.15;3.10;;;8.50;99.90;;;;;;4836335;29;20030;-72
2023/01/30 12:39:03;;;;;;;15.88;4.65;;;8.50;99.90;;;;;;4835184;29;20030;-72
2023/01/30 12:41:41;;;;;;;2.65;2.33;;;8.60;99.90;;;;;;4835741;29;21711;-72
2023/01/30 12:44:38;;;;;;;6.50;2.75;;;8.70;99.90;;;;;;4835082;29;20026;-72
2023/01/30 12:47:06;;;;;;;5.30;2.85;;;8.90;99.90;;;;;;4824963;29;20038;-72
2023/01/30 12:49:41;;;;;;;6.22;3.38;;;8.80;99.90;;;;;;4823850;29;20062;-72
2023/01/30 12:52:35;;;;;;;16.63;4.28;;;9.00;99.90;;;;;;4809479;29;20111;-72
2023/01/30 12:55:06;;;;;;;6.32;3.22;;;9.10;99.90;;;;;;4821802;29;20042;-72
2023/01/30 12:57:35;;;;;;;4.32;3.53;;;9.30;99.90;;;;;;4832376;29;20035;-72
2023/01/30 13:00:04;;;;;;;7.35;3.60;;;9.30;99.90;;;;;;4817918;29;20046;-72
2023/01/30 13:03:08;;;;;;;7.15;3.90;;;9.20;99.90;;;;;;4824988;29;20094;-72
2023/01/30 13:05:49;;;;;;;15.32;3.00;;;9.20;99.90;;;;;;4819168;29;20077;-73
2023/01/30 13:08:34;;;;;;;11.38;3.17;;;9.20;99.90;;;;;;4832599;29;20041;-72
2023/01/30 13:11:03;;;;;;;8.88;3.58;;;9.30;99.90;;;;;;4836180;29;20034;-72
2023/01/30 13:13:43;;;;;;;11.88;4.13;;;9.50;99.90;;;;;;4820645;29;20041;-72